Terminal Aerodrome Forecast
Issued by NWS Quad Cities IA IL

Home | Current Version | Previous Version | Text Only | Print | Product List | Glossary On
Versions: 1 2 3 4 5 6 7 8 9 10 11 12 13 14 15 16 17 18 19
000
FTUS43 KDVN 271700
TAFMLI
TAF
KMLI 271731Z 2718/2818 06005KT P6SM SCT100
     FM280800 11004KT 6SM BR BKN040
     FM281100 12005KT 6SM BR VCTS BKN030CB
     FM281500 12008KT 5SM -TSRA BKN025CB=

USA.gov is the U.S. government's official web portal to all federal, state and local government web resources and services.